Terminal Aerodrome Forecast
Issued by NWS

Home | Current Version | Previous Version | Graphics & Text | Print | Product List | Glossary On
Versions: 1 2 3 4 5 6 7 8 9 10 11 12 13 14 15 16 17 18 19 20 21 22 23 24 25 26 27
000
FTUS43 KBIS 271600 AAC
TAFJMS
TAF AMD
KJMS 271606Z 2716/2812 27013KT P6SM SCT090 BKN250
     FM272000 27016G24KT P6SM BKN025 OVC080
     FM280000 32018G24KT 6SM BR VCSH OVC015
     FM280700 32018KT 6SM BR VCSH OVC012=

USA.gov is the U.S. government's official web portal to all federal, state and local government web resources and services.